^^
Datos históricos de la estación: Murcia-Puente Tocinos
Diario Informe para Marzo 6, 2019 Unidades:  Métrico    Ingés   Ambas
Diario Semanal Mensual Anual
  Máxima: Mínima: Promedio:
Temperatura: 17.7 °C 8.9 °C 12.8 °C
Punto de rocio: 7.6 °C 1.3 °C 4.2 °C
Humedad: 75.1% 33.3% 57%
Velocidad viento: 23.3km/h 0km/h 6.8km/h
Racha viento: 53.1km/h - -
Viento- - SSO
Presión: 1006.7 hPa 1002.5 hPa -
Precipitación: 3.1 mm    
 
 
Tabla de datos para Marzo 6, 2019
Hora Temperatura Punto de rocio Presión Viento Velocidad viento Racha viento Humedad Intensidad lluvia(por hora) Nubes
00:04 10.6 °C 4.4 °C 1002.7 hPa ONO 7.6 km/h 9.7 km/h 65.5% 0.0 mm
00:09 10.6 °C 4.3 °C 1002.7 hPa ONO 7.1 km/h 10 km/h 65.1% 0.0 mm
00:14 10.6 °C 4.4 °C 1002.7 hPa ONO 5.8 km/h 9.7 km/h 65.6% 0.0 mm
00:19 10.5 °C 4.2 °C 1002.7 hPa NO 5.4 km/h 9.3 km/h 65.3% 0.0 mm
00:24 10.4 °C 4.3 °C 1002.6 hPa NO 4.7 km/h 9.7 km/h 66% 0.0 mm
00:29 10.3 °C 4.2 °C 1002.6 hPa ONO 4.7 km/h 11.1 km/h 66.2% 0.0 mm
00:34 10.1 °C 4.3 °C 1002.7 hPa OSO 4.7 km/h 11.3 km/h 67% 0.0 mm
00:39 10.1 °C 4.2 °C 1002.7 hPa OSO 4.4 km/h 8 km/h 67% 0.0 mm
00:44 10.1 °C 4.2 °C 1002.7 hPa SO 3.9 km/h 8.4 km/h 66.9% 0.0 mm
00:49 10.2 °C 4.3 °C 1002.9 hPa SE 4.5 km/h 13.7 km/h 67.1% 0.0 mm
00:54 10.1 °C 4.7 °C 1002.9 hPa SE 5.8 km/h 16.1 km/h 69% 0.0 mm
00:59 9.9 °C 4.7 °C 1002.9 hPa SE 7 km/h 16.1 km/h 70% 0.0 mm
01:04 9.9 °C 4.6 °C 1002.9 hPa SSE 8.7 km/h 13 km/h 69.6% 0.0 mm
01:09 9.9 °C 4.7 °C 1002.7 hPa Sur 8.6 km/h 13 km/h 70% 0.0 mm
01:14 9.9 °C 4.9 °C 1002.7 hPa SO 8.4 km/h 12.9 km/h 70.9% 0.0 mm
01:19 9.9 °C 4.9 °C 1002.9 hPa OSO 7.8 km/h 11.3 km/h 70.9% 0.0 mm
01:24 10.1 °C 4.8 °C 1002.9 hPa OSO 6.9 km/h 9.7 km/h 69.7% 0.0 mm
01:29 10.2 °C 4.8 °C 1002.9 hPa OSO 6.3 km/h 9.7 km/h 69% 0.0 mm
01:34 10.2 °C 4.6 °C 1002.9 hPa OSO 5 km/h 8 km/h 68.3% 0.0 mm
01:39 10.2 °C 4.6 °C 1002.9 hPa OSO 4 km/h 5.6 km/h 68% 0.0 mm
01:44 10.3 °C 4.7 °C 1002.9 hPa SSO 2.2 km/h 9.5 km/h 68.5% 0.0 mm
01:49 10 °C 4.7 °C 1003.1 hPa ESE 2.8 km/h 9.7 km/h 69.8% 0.0 mm
01:54 9.7 °C 4.7 °C 1003.1 hPa ESE 3.9 km/h 9.7 km/h 71.4% 0.0 mm
01:59 9.6 °C 4.8 °C 1003.1 hPa NNE 3.6 km/h 7.6 km/h 72.3% 0.0 mm
02:04 9.4 °C 4.8 °C 1003.1 hPa North 3.2 km/h 8 km/h 73% 0.0 mm
02:09 9.4 °C 4.8 °C 1002.9 hPa NO 3.1 km/h 8.4 km/h 73% 0.0 mm
02:14 9.4 °C 4.8 °C 1002.9 hPa NNO 2.9 km/h 8 km/h 73% 0.0 mm
02:19 9.4 °C 4.8 °C 1002.9 hPa NO 3.6 km/h 8 km/h 73% 0.0 mm
02:24 9.3 °C 4.8 °C 1002.8 hPa NO 4.7 km/h 8 km/h 73.3% 0.0 mm
02:29 9.3 °C 4.8 °C 1002.8 hPa NO 4.1 km/h 7.6 km/h 73.8% 0.0 mm
02:34 9.2 °C 4.8 °C 1002.8 hPa NNO 3.2 km/h 8 km/h 74% 0.0 mm
02:39 9.2 °C 5 °C 1002.7 hPa NNO 3.8 km/h 8.4 km/h 74.9% 0.0 mm
02:44 9.1 °C 4.9 °C 1002.7 hPa NNO 4.7 km/h 8 km/h 75.1% 0.0 mm
02:49 9.1 °C 4.9 °C 1002.7 hPa NO 4.7 km/h 8.4 km/h 75% 0.0 mm
02:54 9.1 °C 4.8 °C 1002.7 hPa NO 4.7 km/h 11.1 km/h 74.4% 0.0 mm
02:59 9.2 °C 4.7 °C 1002.7 hPa NO 5.1 km/h 11.3 km/h 73.8% 0.0 mm
03:04 9.2 °C 4.6 °C 1002.8 hPa ONO 5.8 km/h 8 km/h 73% 0.0 mm
03:09 9.2 °C 4.4 °C 1002.8 hPa ONO 4.9 km/h 8 km/h 72.1% 0.0 mm
03:14 9.3 °C 4.5 °C 1002.8 hPa ONO 3.2 km/h 6.4 km/h 72% 0.0 mm
03:19 9.3 °C 4.5 °C 1002.8 hPa ONO 2.9 km/h 6.4 km/h 72.1% 0.0 mm
03:24 9.4 °C 4.9 °C 1002.7 hPa Sur 2.2 km/h 8.4 km/h 73.5% 0.0 mm
03:29 9.4 °C 4.9 °C 1002.7 hPa SE 2.6 km/h 8 km/h 73.4% 0.0 mm
03:34 9.4 °C 4.8 °C 1002.7 hPa SE 3.2 km/h 3.2 km/h 73% 0.0 mm
03:39 9.4 °C 4.8 °C 1002.7 hPa SE 2.1 km/h 5 km/h 73% 0.0 mm
03:44 9.4 °C 4.8 °C 1002.7 hPa Calm   5.8 km/h 72.9% 0.0 mm
03:49 9.4 °C 4.5 °C 1002.7 hPa Sur 1 km/h 7.4 km/h 71.7% 0.0 mm
03:54 9.5 °C 4.3 °C 1002.6 hPa Sur 2.9 km/h 8.4 km/h 70% 0.0 mm
03:59 9.7 °C 4.1 °C 1002.6 hPa Sur 3.8 km/h 9.3 km/h 68.2% 0.0 mm
04:04 9.8 °C 4.1 °C 1002.6 hPa SSO 5 km/h 9.7 km/h 67.5% 0.0 mm
04:09 9.9 °C 3.7 °C 1002.5 hPa OSO 4.9 km/h 8.4 km/h 65.4% 0.0 mm
04:14 10.1 °C 3.6 °C 1002.5 hPa OSO 4.7 km/h 8 km/h 64.1% 0.0 mm
04:19 10.1 °C 3.5 °C 1002.5 hPa OSO 4.4 km/h 9.5 km/h 63.6% 0.0 mm
04:24 10.2 °C 3.6 °C 1002.5 hPa SO 3.9 km/h 9.7 km/h 63.8% 0.0 mm
04:29 10.2 °C 3.7 °C 1002.5 hPa Oeste 3.6 km/h 9.7 km/h 64.3% 0.0 mm
04:34 10.2 °C 3.7 °C 1002.7 hPa Oeste 3.2 km/h 8 km/h 64.3% 0.0 mm
04:39 10.2 °C 3.9 °C 1002.7 hPa Oeste 2.9 km/h 5.8 km/h 65.2% 0.0 mm
04:44 9.9 °C 4.1 °C 1002.7 hPa Oeste 2.2 km/h 7.4 km/h 67.6% 0.0 mm
04:49 9.5 °C 4.1 °C 1002.7 hPa Oeste 2.6 km/h 8 km/h 68.8% 0.0 mm
04:54 9.3 °C 4.1 °C 1002.6 hPa Oeste 3.2 km/h 6.4 km/h 70% 0.0 mm
04:59 9.2 °C 4.1 °C 1002.6 hPa Oeste 1.8 km/h 6.4 km/h 70.8% 0.0 mm
05:04 9.1 °C 3.9 °C 1002.6 hPa Calm   8 km/h 70% 0.0 mm
05:09 9 °C 3.7 °C 1002.5 hPa SSE 1.4 km/h 8 km/h 69.1% 0.0 mm
05:14 9 °C 3.6 °C 1002.5 hPa SE 3.9 km/h 9.3 km/h 69% 0.0 mm
05:19 8.9 °C 3.8 °C 1002.6 hPa SE 4.2 km/h 9.7 km/h 69.9% 0.0 mm
05:24 9 °C 3.8 °C 1002.6 hPa SE 5 km/h 8 km/h 70% 0.0 mm
05:29 9 °C 3.8 °C 1002.6 hPa SSE 5 km/h 11.1 km/h 70% 0.0 mm
05:34 9.1 °C 3.8 °C 1002.7 hPa Sur 5 km/h 13 km/h 69.8% 0.0 mm
05:39 9.1 °C 3.7 °C 1002.7 hPa Sur 6.6 km/h 14.8 km/h 69% 0.0 mm
05:44 9.1 °C 3.7 °C 1002.7 hPa Sur 9.5 km/h 14.8 km/h 69% 0.0 mm
05:49 9.2 °C 3.7 °C 1002.8 hPa SSO 9.2 km/h 14.8 km/h 68.5% 0.0 mm
05:54 9.5 °C 3.4 °C 1002.8 hPa SSO 8.7 km/h 14.8 km/h 65.9% 0.0 mm
05:59 9.8 °C 3.5 °C 1002.8 hPa SSE 8.6 km/h 14.5 km/h 64.9% 0.0 mm
06:04 9.8 °C 3.8 °C 1002.8 hPa SSE 8.4 km/h 12.2 km/h 66.3% 0.0 mm
06:09 9.5 °C 3.7 °C 1002.8 hPa SSE 8.1 km/h 13 km/h 67.1% 0.0 mm
06:14 9.3 °C 3.7 °C 1002.8 hPa SSE 7.6 km/h 14 km/h 68% 0.0 mm
06:19 9.1 °C 3.5 °C 1003.0 hPa Sur 8.2 km/h 15.6 km/h 68% 0.0 mm
06:24 9.1 °C 3.4 °C 1003.0 hPa Sur 9.5 km/h 16.1 km/h 67.7% 0.0 mm
06:29 9.1 °C 3.5 °C 1003.0 hPa SSO 9.1 km/h 14.5 km/h 68% 0.0 mm
06:34 9.1 °C 3.4 °C 1003.1 hPa SO 8.4 km/h 9.7 km/h 67.5% 0.0 mm
06:39 9.1 °C 3.5 °C 1003.1 hPa SO 6.6 km/h 9.7 km/h 68% 0.0 mm
06:44 9.1 °C 3.5 °C 1003.1 hPa SO 3.2 km/h 1.6 km/h 68% 0.0 mm
06:49 9.1 °C 3.5 °C 1003.4 hPa SO 2.1 km/h 6.4 km/h 67.9% 0.0 mm
06:54 9.1 °C 3.3 °C 1003.4 hPa Calm   8 km/h 67% 0.0 mm
06:59 9.2 °C 3.4 °C 1003.4 hPa Oeste 1.6 km/h 8 km/h 67% 0.0 mm
07:04 9.2 °C 3.4 °C 1003.6 hPa Oeste 3.9 km/h 8.7 km/h 67% 0.0 mm
07:09 9.2 °C 3.4 °C 1003.6 hPa Oeste 4.5 km/h 11.1 km/h 67% 0.0 mm
07:14 9.1 °C 3.4 °C 1003.6 hPa OSO 5.8 km/h 11.3 km/h 67.6% 0.0 mm
07:19 9.1 °C 3.4 °C 1003.8 hPa OSO 5.8 km/h 11.1 km/h 67.4% 0.0 mm
07:24 9.2 °C 3.3 °C 1003.8 hPa OSO 5.8 km/h 11.3 km/h 67% 0.0 mm
07:29 9.2 °C 3.3 °C 1003.8 hPa OSO 5.8 km/h 14.8 km/h 66.8% 0.0 mm
07:34 9.3 °C 3.2 °C 1004.0 hPa SO 5.8 km/h 14.5 km/h 65.7% 0.0 mm
07:39 9.5 °C 3.1 °C 1004.0 hPa SO 6.7 km/h 13 km/h 64.3% 0.0 mm
07:44 9.7 °C 3.2 °C 1004.0 hPa OSO 8.4 km/h 12.9 km/h 64% 0.0 mm
07:49 9.7 °C 3.2 °C 1004.0 hPa OSO 7.2 km/h 9.7 km/h 64% 0.0 mm
07:54 9.6 °C 3.1 °C 1004.0 hPa SO 5 km/h 10 km/h 64.1% 0.0 mm
07:59 9.5 °C 3.4 °C 1004.0 hPa ONO 4.8 km/h 9.7 km/h 65.5% 0.0 mm
08:04 9.2 °C 3.5 °C 1004.4 hPa NO 4.6 km/h 8 km/h 67.4% 0.0 mm
08:09 9.1 °C 3.6 °C 1004.4 hPa North 4 km/h 9.3 km/h 68.6% 0.0 mm
08:14 9.1 °C 3.7 °C 1004.4 hPa ESE 2.9 km/h 9.7 km/h 69% 0.0 mm
08:19 9.1 °C 3.6 °C 1004.5 hPa SSE 3 km/h 8.4 km/h 68.4% 0.0 mm
08:24 9.1 °C 3.5 °C 1004.5 hPa Sur 3.2 km/h 11.1 km/h 68% 0.0 mm
08:29 9.1 °C 3.5 °C 1004.5 hPa SSE 4.3 km/h 11.3 km/h 68.2% 0.0 mm
08:34 9.2 °C 3.5 °C 1004.6 hPa SSE 6.5 km/h 9.7 km/h 68% 0.0 mm
08:39 9.2 °C 3.5 °C 1004.6 hPa SSE 6.2 km/h 11.1 km/h 67.6% 0.0 mm
08:44 9.3 °C 3.6 °C 1004.6 hPa SSE 5.8 km/h 11.3 km/h 67.5% 0.0 mm
08:49 9.4 °C 3.5 °C 1004.8 hPa SSE 5.8 km/h 11.3 km/h 66.7% 0.0 mm
08:54 9.7 °C 3.6 °C 1004.8 hPa SSE 5.8 km/h 9.3 km/h 65.8% 0.0 mm
08:59 9.9 °C 3.7 °C 1004.8 hPa SSE 5.8 km/h 9.7 km/h 65.1% 0.0 mm
09:04 10.2 °C 4.1 °C 1004.9 hPa SSE 5.8 km/h 8 km/h 66% 0.0 mm
09:09 10.4 °C 4.2 °C 1004.9 hPa Sur 5.1 km/h 8 km/h 65.5% 0.0 mm
09:14 10.7 °C 4 °C 1004.9 hPa SSE 3.9 km/h 8 km/h 63.3% 0.0 mm
09:19 10.9 °C 3.9 °C 1005.1 hPa SSE 3.5 km/h 6.4 km/h 62% 0.0 mm
09:24 11.3 °C 4 °C 1005.1 hPa SSO 2.9 km/h 7.4 km/h 60.5% 0.0 mm
09:29 11.7 °C 3.5 °C 1005.1 hPa SO 2.9 km/h 8 km/h 57.6% 0.0 mm
09:34 11.8 °C 3.2 °C 1005.2 hPa SO 2.9 km/h 8.4 km/h 55.8% 0.0 mm
09:39 11.9 °C 3.1 °C 1005.2 hPa SSO 3 km/h 8.7 km/h 54.8% 0.0 mm
09:44 12 °C 2.8 °C 1005.2 hPa SSO 3.2 km/h 12.2 km/h 53.1% 0.0 mm
09:49 12.1 °C 2.6 °C 1005.2 hPa SSO 4.3 km/h 13 km/h 52.3% 0.0 mm
09:54 12.2 °C 2.7 °C 1005.1 hPa ONO 6.5 km/h 11.3 km/h 52% 0.0 mm
09:59 12.6 °C 2.8 °C 1005.1 hPa ONO 5.1 km/h 8.7 km/h 51.5% 0.0 mm
10:04 12.9 °C 2.2 °C 1005.2 hPa Sur 3.2 km/h 9.7 km/h 48.3% 0.0 mm
10:09 13.1 °C 2.6 °C 1005.2 hPa Sur 3.1 km/h 9.7 km/h 48.9% 0.0 mm
10:14 13.4 °C 3.2 °C 1005.2 hPa SE 2.9 km/h 5.8 km/h 50.2% 0.0 mm
10:19 13.8 °C 4 °C 1005.2 hPa NNE 2.9 km/h 7.4 km/h 51.7% 0.0 mm
10:24 13.9 °C 4.1 °C 1005.2 hPa NNE 2.9 km/h 8 km/h 51.6% 0.0 mm
10:29 14.1 °C 3.8 °C 1005.2 hPa NE 3.2 km/h 10 km/h 49.8% 0.0 mm
10:34 13.9 °C 3.5 °C 1005.2 hPa NE 3.9 km/h 9.7 km/h 49.7% 0.0 mm
10:39 13.9 °C 3.7 °C 1005.2 hPa NNE 3.9 km/h 9.7 km/h 50.3% 0.0 mm
10:44 14.1 °C 3.6 °C 1005.2 hPa SE 3.9 km/h 8.7 km/h 49.3% 0.0 mm
10:49 14.2 °C 3.2 °C 1005.4 hPa SE 3.9 km/h 11.1 km/h 47.5% 0.0 mm
10:54 14.3 °C 2.8 °C 1005.4 hPa Sur 3.9 km/h 11.9 km/h 45.9% 0.0 mm
10:59 14.3 °C 2.8 °C 1005.4 hPa SSE 4.9 km/h 11.3 km/h 45.8% 0.0 mm
11:04 14.3 °C 2.5 °C 1005.4 hPa Sur 6.5 km/h 14.8 km/h 44.8% 0.0 mm
11:09 14.5 °C 2.3 °C 1005.4 hPa SE 6 km/h 14.5 km/h 44% 0.0 mm
11:14 14.7 °C 2.5 °C 1005.4 hPa SSO 5 km/h 14.8 km/h 44% 0.0 mm
11:19 14.8 °C 2.7 °C 1005.4 hPa SE 5 km/h 14.5 km/h 43.9% 0.0 mm
11:24 15 °C 2.5 °C 1005.4 hPa ESE 5 km/h 15.6 km/h 43% 0.0 mm
11:29 15.1 °C 2.6 °C 1005.4 hPa ESE 6.2 km/h 16.1 km/h 43.1% 0.0 mm
11:34 15.2 °C 2.4 °C 1005.4 hPa Sur 8.4 km/h 14.8 km/h 42.2% 0.0 mm
11:39 15.3 °C 2.5 °C 1005.3 hPa SE 7.5 km/h 14.5 km/h 42.2% 0.0 mm
11:44 15.4 °C 2.6 °C 1005.3 hPa Este 5.8 km/h 13 km/h 42.1% 0.0 mm
11:49 15.5 °C 2.3 °C 1005.3 hPa Sur 5.5 km/h 14.8 km/h 41.1% 0.0 mm
11:54 15.6 °C 2.4 °C 1005.2 hPa ESE 5 km/h 14.8 km/h 41.1% 0.0 mm
11:59 15.8 °C 2.5 °C 1005.2 hPa SSE 6.4 km/h 14.5 km/h 41% 0.0 mm
12:04 16.1 °C 2.3 °C 1005.2 hPa OSO 8.4 km/h 14.8 km/h 39.6% 0.0 mm
12:09 16 °C 2.4 °C 1005.1 hPa Oeste 7.9 km/h 15.6 km/h 39.9% 0.0 mm
12:14 16.1 °C 2.1 °C 1005.1 hPa OSO 6.9 km/h 16.1 km/h 39.1% 0.0 mm
12:19 16 °C 2 °C 1005.1 hPa SO 7.4 km/h 19 km/h 39% 0.0 mm
12:24 16.2 °C 1.9 °C 1005.0 hPa SO 8.4 km/h 19.3 km/h 38.1% 0.0 mm
12:29 16.3 °C 1.8 °C 1005.0 hPa NNO 8.4 km/h 16.1 km/h 37.7% 0.0 mm
12:34 16.3 °C 1.7 °C 1005.0 hPa Este 8.4 km/h 16.1 km/h 37.3% 0.0 mm
12:39 16.4 °C 2 °C 1004.7 hPa Sur 7.7 km/h 11.3 km/h 37.9% 0.0 mm
12:44 16.7 °C 2 °C 1004.7 hPa SSE 6.5 km/h 13 km/h 37.2% 0.0 mm
12:49 16.7 °C 1.9 °C 1004.7 hPa SE 6.5 km/h 19 km/h 37% 0.0 mm
12:54 16.9 °C 2.2 °C 1004.4 hPa SO 6.5 km/h 26.2 km/h 37.2% 0.0 mm
12:59 17 °C 2.2 °C 1004.4 hPa OSO 8.9 km/h 25.9 km/h 37% 0.0 mm
13:04 17.2 °C 2.1 °C 1004.4 hPa Oeste 12.2 km/h 19.3 km/h 36.2% 0.0 mm
13:09 17.3 °C 2.1 °C 1004.4 hPa SO 9.7 km/h 12.2 km/h 36% 0.0 mm
13:14 17.4 °C 2.1 °C 1004.4 hPa SSO 5 km/h 13.7 km/h 35.9% 0.0 mm
13:19 17.5 °C 2 °C 1004.4 hPa SO 5.9 km/h 19 km/h 35.3% 0.0 mm
13:24 17.3 °C 1.9 °C 1004.3 hPa Sur 7.6 km/h 19.3 km/h 35.6% 0.0 mm
13:29 17.2 °C 1.7 °C 1004.3 hPa Sur 8.5 km/h 17.7 km/h 35.1% 0.0 mm
13:34 17.2 °C 1.6 °C 1004.3 hPa SO 10.3 km/h 16.7 km/h 34.9% 0.0 mm
13:39 17.2 °C 1.6 °C 1004.1 hPa OSO 8.9 km/h 12.9 km/h 35% 0.0 mm
13:44 17.3 °C 1.9 °C 1004.1 hPa SSO 6.5 km/h 18.5 km/h 35.4% 0.0 mm
13:49 17.4 °C 1.8 °C 1004.1 hPa SSO 6.8 km/h 19.3 km/h 35.1% 0.0 mm
13:54 17.6 °C 1.8 °C 1004.0 hPa SSO 7.6 km/h 18 km/h 34.7% 0.0 mm
13:59 17.7 °C 1.6 °C 1004.0 hPa SSO 8.3 km/h 20.9 km/h 34% 0.0 mm
14:04 17.7 °C 1.3 °C 1004.0 hPa SSO 9.5 km/h 29.8 km/h 33.3% 0.0 mm
14:09 17.7 °C 1.4 °C 1003.6 hPa Sur 10.8 km/h 30.6 km/h 33.6% 0.0 mm
14:14 17.7 °C 1.8 °C 1003.6 hPa SSE 13 km/h 24.1 km/h 34.4% 0.0 mm
14:19 17.5 °C 3.2 °C 1003.6 hPa SE 12.1 km/h 20.9 km/h 38.5% 0.0 mm
14:24 17.3 °C 3.2 °C 1003.5 hPa Sur 10.3 km/h 20.4 km/h 39.2% 0.0 mm
14:29 17.1 °C 2.9 °C 1003.5 hPa SSO 10 km/h 34.6 km/h 38.6% 0.0 mm
14:34 16.8 °C 3.5 °C 1003.9 hPa OSO 9.5 km/h 35.4 km/h 41.3% 0.0 mm
14:39 16.1 °C 4.3 °C 1003.9 hPa ONO 11.1 km/h 35.4 km/h 45.6% 0.0 mm
14:44 15.5 °C 4.6 °C 1003.9 hPa ONO 14 km/h 40.7 km/h 48.4% 0.3 mm
14:49 14.5 °C 5.4 °C 1005.0 hPa Oeste 17.2 km/h 52.6 km/h 54.7% 1.0 mm
14:54 13.3 °C 6.5 °C 1005.0 hPa Oeste 23.3 km/h 53.1 km/h 63.2% 1.3 mm
14:59 12.9 °C 6.9 °C 1005.0 hPa Oeste 20.1 km/h 35.4 km/h 67% 1.3 mm
15:04 12.8 °C 6.6 °C 1005.0 hPa OSO 15.6 km/h 20.9 km/h 66% 1.3 mm
15:09 13 °C 6.8 °C 1004.7 hPa Oeste 13.2 km/h 20.9 km/h 65.9% 1.3 mm
15:14 13.3 °C 7.2 °C 1004.7 hPa ONO 8.7 km/h 14.5 km/h 66.7% 1.3 mm
15:19 13.7 °C 7.5 °C 1004.7 hPa OSO 7 km/h 10 km/h 66% 1.3 mm
15:24 14.4 °C 6.6 °C 1004.3 hPa SO 3.9 km/h 13.7 km/h 59.6% 1.3 mm
15:29 15 °C 5.4 °C 1004.3 hPa SO 4.9 km/h 15.6 km/h 52.9% 1.3 mm
15:34 15.5 °C 6.4 °C 1004.3 hPa Sur 6.9 km/h 21.7 km/h 54.7% 1.3 mm
15:39 15.5 °C 6.5 °C 1004.1 hPa Sur 8.1 km/h 22.5 km/h 55.2% 1.3 mm
15:44 15.6 °C 6.8 °C 1004.1 hPa SSO 10.3 km/h 22.5 km/h 56.1% 1.3 mm
15:49 15.6 °C 6.1 °C 1004.1 hPa SSO 10.2 km/h 19.3 km/h 53.3% 0.8 mm
15:54 15.7 °C 6.3 °C 1004.1 hPa Sur 10 km/h 14.5 km/h 53.9% 0.3 mm
15:59 15.8 °C 5.8 °C 1004.1 hPa SSE 9 km/h 11.9 km/h 51.4% 0.0 mm
16:04 15.8 °C 5.5 °C 1004.1 hPa Sur 7.6 km/h 16.7 km/h 50.3% 0.0 mm
16:09 16.2 °C 5.3 °C 1003.9 hPa Sur 8.2 km/h 18.5 km/h 48.4% 0.0 mm
16:14 16.4 °C 4.6 °C 1003.9 hPa SSO 9.5 km/h 19.3 km/h 45.6% 0.0 mm
16:19 16.4 °C 4.6 °C 1003.9 hPa SSO 10.3 km/h 19.8 km/h 45.4% 0.0 mm
16:24 16.6 °C 4.6 °C 1003.6 hPa SSO 11.9 km/h 22.5 km/h 45.1% 0.0 mm
16:29 16.6 °C 4.4 °C 1003.6 hPa SSO 11.9 km/h 22.5 km/h 44.3% 0.0 mm
16:34 16.7 °C 4.2 °C 1003.6 hPa SSO 11.9 km/h 20.9 km/h 43.4% 0.2 mm
16:39 16.7 °C 4.5 °C 1003.4 hPa SSO 11.3 km/h 20.4 km/h 44.4% 0.5 mm
16:44 16.4 °C 4.8 °C 1003.4 hPa SSE 10 km/h 20.9 km/h 46.2% 0.5 mm
16:49 16.3 °C 4.9 °C 1003.4 hPa SSE 9.4 km/h 14.5 km/h 46.9% 0.5 mm
16:54 16.3 °C 5 °C 1003.0 hPa Sur 8.4 km/h 15.6 km/h 47.2% 0.5 mm
16:59 16.3 °C 5.3 °C 1003.0 hPa SSO 8.4 km/h 16.1 km/h 48.1% 0.5 mm
17:04 16.5 °C 5.3 °C 1003.0 hPa SSO 8.4 km/h 24.1 km/h 47.6% 0.5 mm
17:09 16.6 °C 5.5 °C 1002.8 hPa Sur 9.3 km/h 24.1 km/h 47.9% 0.5 mm
17:14 16.5 °C 6.1 °C 1002.8 hPa Sur 11.1 km/h 24.5 km/h 50% 0.7 mm
17:19 16.1 °C 5.6 °C 1003.3 hPa Sur 12.4 km/h 29.8 km/h 49.7% 1.0 mm
17:24 15.7 °C 5.1 °C 1003.3 hPa Sur 14.8 km/h 30.6 km/h 49.3% 1.3 mm
17:29 15.4 °C 5.6 °C 1003.3 hPa Oeste 13.9 km/h 44.4 km/h 52.2% 1.5 mm
17:34 15 °C 5.5 °C 1003.9 hPa NO 12.2 km/h 45.1 km/h 53.2% 1.6 mm
17:39 14.6 °C 6.4 °C 1003.9 hPa NNO 14.2 km/h 41.8 km/h 57.7% 1.6 mm
17:44 14.4 °C 6.3 °C 1003.9 hPa NNE 18 km/h 16.1 km/h 58% 1.3 mm
17:49 14.4 °C 6.3 °C 1003.9 hPa NNE 12.9 km/h 8 km/h 58.2% 1.3 mm
17:54 14.6 °C 6.5 °C 1003.7 hPa North 3.2 km/h 11.1 km/h 58.3% 1.3 mm
17:59 14.7 °C 5.9 °C 1003.7 hPa ONO 3.8 km/h 11.3 km/h 55.7% 1.3 mm
18:04 14.9 °C 6.5 °C 1003.9 hPa North 4.6 km/h 19 km/h 57.3% 1.3 mm
18:09 15 °C 5.7 °C 1003.9 hPa ONO 6.3 km/h 24.5 km/h 53.6% 1.3 mm
18:14 15.1 °C 5.4 °C 1003.9 hPa NNO 9.5 km/h 25.9 km/h 52.4% 1.1 mm
18:19 15.2 °C 5.6 °C 1004.0 hPa NNO 10.4 km/h 25.7 km/h 52.7% 1.1 mm
18:24 15.3 °C 6 °C 1004.0 hPa NNO 12.2 km/h 20.9 km/h 53.9% 0.8 mm
18:29 15.2 °C 5.6 °C 1004.0 hPa NO 10.9 km/h 19.3 km/h 52.8% 0.5 mm
18:34 15.2 °C 5.4 °C 1004.4 hPa ONO 8.4 km/h 16.7 km/h 52% 0.3 mm
18:39 15.2 °C 5.2 °C 1004.4 hPa NNO 8.1 km/h 16.1 km/h 51.3% 0.0 mm
18:44 15.2 °C 5.1 °C 1004.4 hPa NNO 7.6 km/h 20.4 km/h 51.1% 0.0 mm
18:49 15.1 °C 5 °C 1004.4 hPa NNO 7.6 km/h 20.9 km/h 50.9% 0.0 mm
18:54 14.9 °C 4.8 °C 1004.3 hPa North 7.6 km/h 12.9 km/h 50.8% 0.0 mm
18:59 14.9 °C 4.8 °C 1004.3 hPa ENE 6.4 km/h 9.7 km/h 50.7% 0.0 mm
19:04 14.9 °C 5 °C 1004.6 hPa Este 4.6 km/h 8 km/h 51.7% 0.0 mm
19:09 14.9 °C 5 °C 1004.6 hPa Este 4.4 km/h 9.5 km/h 51.6% 0.0 mm
19:14 14.9 °C 5.4 °C 1004.6 hPa ESE 3.9 km/h 13 km/h 52.9% 0.0 mm
19:19 14.8 °C 6.1 °C 1004.6 hPa ESE 4.7 km/h 13 km/h 55.8% 0.0 mm
19:24 14.7 °C 7 °C 1004.5 hPa ESE 6.5 km/h 12.9 km/h 59.7% 0.0 mm
19:29 14.7 °C 7.4 °C 1004.5 hPa Este 6 km/h 9.7 km/h 61.7% 0.0 mm
19:34 14.7 °C 6.9 °C 1004.8 hPa ESE 5 km/h 8 km/h 59.4% 0.0 mm
19:39 14.6 °C 6.9 °C 1004.8 hPa ESE 4.4 km/h 7.6 km/h 59.7% 0.0 mm
19:44 14.6 °C 7.2 °C 1004.8 hPa SE 3.2 km/h 8 km/h 61.1% 0.0 mm
19:49 14.6 °C 7.6 °C 1004.8 hPa SE 3.4 km/h 8 km/h 63% 0.0 mm
19:54 14.6 °C 7.6 °C 1004.8 hPa SE 3.9 km/h 5.8 km/h 62.8% 0.0 mm
19:59 14.6 °C 7.5 °C 1004.8 hPa SE 3.4 km/h 7.4 km/h 62.5% 0.0 mm
20:04 14.5 °C 7.4 °C 1005.0 hPa SSO 2.9 km/h 8 km/h 62.5% 0.0 mm
20:09 14.4 °C 7.6 °C 1005.0 hPa OSO 3.2 km/h 8 km/h 63.6% 0.0 mm
20:14 14.4 °C 7.5 °C 1005.0 hPa Oeste 3.9 km/h 9.5 km/h 63.1% 0.0 mm
20:19 14.3 °C 6.9 °C 1005.0 hPa ONO 3.6 km/h 9.7 km/h 61% 0.0 mm
20:24 14.3 °C 6.1 °C 1004.9 hPa OSO 3.2 km/h 8.4 km/h 58% 0.0 mm
20:29 14.3 °C 6.4 °C 1004.9 hPa SO 3.9 km/h 9.3 km/h 58.9% 0.0 mm
20:34 14.3 °C 6.9 °C 1005.0 hPa SSE 5 km/h 9.7 km/h 60.9% 0.0 mm
20:39 14.3 °C 7.6 °C 1005.0 hPa SSE 4.9 km/h 8 km/h 64.1% 0.0 mm
20:44 14.2 °C 6.2 °C 1005.0 hPa SO 4.7 km/h 11.9 km/h 58.6% 0.0 mm
20:49 14.2 °C 7.1 °C 1005.3 hPa SSE 4.8 km/h 11.3 km/h 62.4% 0.0 mm
20:54 14.1 °C 7 °C 1005.3 hPa Sur 5 km/h 13 km/h 62.4% 0.0 mm
20:59 14.1 °C 5.6 °C 1005.3 hPa SSO 6.1 km/h 17.2 km/h 56.8% 0.0 mm
21:04 14.1 °C 6.2 °C 1005.3 hPa SSO 7.6 km/h 17.7 km/h 59.1% 0.0 mm
21:09 13.9 °C 5.6 °C 1005.3 hPa OSO 7.6 km/h 14.5 km/h 57.5% 0.0 mm
21:14 13.9 °C 5 °C 1005.3 hPa SO 7.6 km/h 13 km/h 54.7% 0.0 mm
21:19 14 °C 3.9 °C 1005.6 hPa OSO 7.9 km/h 18.5 km/h 50.6% 0.0 mm
21:24 14.2 °C 3.8 °C 1005.6 hPa SO 8.4 km/h 19.3 km/h 49.7% 0.0 mm
21:29 14.2 °C 3.6 °C 1005.6 hPa OSO 8.9 km/h 23.3 km/h 48.8% 0.0 mm
21:34 14.2 °C 3.5 °C 1005.8 hPa OSO 10 km/h 24.1 km/h 48.5% 0.0 mm
21:39 14.1 °C 3.6 °C 1005.8 hPa SO 10.8 km/h 24.1 km/h 49% 0.0 mm
21:44 14 °C 3.6 °C 1005.8 hPa SO 12.2 km/h 20.9 km/h 49.5% 0.0 mm
21:49 13.9 °C 3.6 °C 1005.9 hPa SO 11.3 km/h 31.7 km/h 49.9% 0.0 mm
21:54 13.8 °C 3.3 °C 1005.9 hPa OSO 9.5 km/h 32.2 km/h 49.1% 0.0 mm
21:59 13.8 °C 3.3 °C 1005.9 hPa OSO 10.9 km/h 32.2 km/h 49.1% 0.0 mm
22:04 13.8 °C 3.3 °C 1005.9 hPa OSO 13 km/h 22.5 km/h 49% 0.0 mm
22:09 13.7 °C 3.2 °C 1005.8 hPa OSO 13 km/h 22.5 km/h 49% 0.0 mm
22:14 13.7 °C 3.2 °C 1005.8 hPa OSO 13 km/h 20.9 km/h 49.2% 0.0 mm
22:19 13.6 °C 3.5 °C 1006.1 hPa SO 12 km/h 20.9 km/h 50.2% 0.0 mm
22:24 13.6 °C 3.7 °C 1006.1 hPa OSO 10.3 km/h 20.4 km/h 51% 0.0 mm
22:29 13.5 °C 3.8 °C 1006.1 hPa OSO 10 km/h 20.9 km/h 51.9% 0.0 mm
22:34 13.4 °C 3.9 °C 1006.4 hPa SO 9.5 km/h 17.7 km/h 52.5% 0.0 mm
22:39 13.4 °C 4 °C 1006.4 hPa SO 9.2 km/h 18.5 km/h 53% 0.0 mm
22:44 13.3 °C 3.9 °C 1006.4 hPa SO 8.7 km/h 19.3 km/h 53% 0.0 mm
22:49 13.3 °C 3.8 °C 1006.7 hPa SO 9.1 km/h 20.9 km/h 52.5% 0.0 mm
22:54 13.3 °C 3.7 °C 1006.7 hPa OSO 10 km/h 20.9 km/h 52% 0.0 mm
22:59 13.3 °C 3.5 °C 1006.7 hPa OSO 9.4 km/h 19.3 km/h 51.3% 0.0 mm
23:04 13.3 °C 3.3 °C 1006.7 hPa Oeste 8.7 km/h 16.1 km/h 50.9% 0.0 mm
23:09 13.3 °C 3.2 °C 1006.6 hPa SO 8.7 km/h 16.1 km/h 50.2% 0.0 mm
23:14 13.3 °C 3.3 °C 1006.6 hPa SSO 8.7 km/h 16.1 km/h 50.8% 0.0 mm
23:19 13.3 °C 3.4 °C 1006.6 hPa SSO 9.3 km/h 18.5 km/h 51% 0.0 mm
23:24 13.2 °C 3.5 °C 1006.5 hPa SSO 10.3 km/h 19.3 km/h 51.9% 0.0 mm
23:29 13.2 °C 3.6 °C 1006.5 hPa SSO 10.3 km/h 17.2 km/h 52.1% 0.0 mm
23:34 13.1 °C 3.7 °C 1006.5 hPa SSO 10.3 km/h 17.7 km/h 53% 0.0 mm
23:39 13.1 °C 3.9 °C 1006.5 hPa Sur 10.2 km/h 16.1 km/h 53.9% 0.0 mm
23:44 12.9 °C 4 °C 1006.5 hPa Sur 10 km/h 14.8 km/h 54.8% 0.0 mm
23:49 12.9 °C 3.9 °C 1006.5 hPa SSE 10 km/h 16.7 km/h 54.4% 0.0 mm
23:54 12.9 °C 3.6 °C 1006.5 hPa SSO 10 km/h 19.8 km/h 53.3% 0.0 mm
23:59 12.9 °C 3.5 °C 1006.5 hPa SSO 10.8 km/h 20.9 km/h 52.8% 0.0 mm
Murcia-Puente Tocinos, España
Compliments of Weather Underground - 3 mb

La estación de MeteoMurcia.com, publica sus datos en los siguientes proyectos:

Weather Underground PWS IMURCIAP2 Meteoclimatic www.awekas.at

W3Counter
Web Analytics